createdAt,value
2022-10-31T00:00:31.375Z,2.60
2022-10-31T00:02:58.330Z,2.72
2022-10-31T00:05:25.282Z,2.00
2022-10-31T00:07:54.970Z,2.20
2022-10-31T00:10:21.578Z,3.20
2022-10-31T00:12:48.204Z,2.35
2022-10-31T00:15:14.942Z,2.85
2022-10-31T00:17:41.621Z,2.78
2022-10-31T00:20:08.856Z,2.80
2022-10-31T00:22:35.457Z,2.25
2022-10-31T00:25:02.053Z,3.03
2022-10-31T00:27:28.638Z,3.03
2022-10-31T00:29:55.240Z,2.70
2022-10-31T00:32:21.870Z,3.28
2022-10-31T00:34:48.443Z,2.60
2022-10-31T00:37:15.107Z,2.90
2022-10-31T00:39:41.725Z,2.53
2022-10-31T00:42:08.362Z,2.47
2022-10-31T00:44:34.975Z,1.92
2022-10-31T00:47:01.552Z,2.63
2022-10-31T00:49:28.190Z,2.60
2022-10-31T00:51:54.848Z,2.40
2022-10-31T00:54:21.454Z,3.08
2022-10-31T00:56:48.064Z,2.80
2022-10-31T00:59:14.666Z,3.10
2022-10-31T01:01:41.386Z,3.08
2022-10-31T01:04:08.120Z,3.00
2022-10-31T01:06:34.729Z,3.08
2022-10-31T01:09:01.307Z,3.40
2022-10-31T01:11:28.051Z,2.88
2022-10-31T01:13:54.955Z,2.88
2022-10-31T01:16:25.236Z,1.67
2022-10-31T01:18:52.435Z,2.95
2022-10-31T01:21:21.467Z,4.22
2022-10-31T01:23:48.554Z,2.85
2022-10-31T01:26:26.663Z,2.95
2022-10-31T01:28:55.930Z,2.75
2022-10-31T01:31:28.105Z,2.40
2022-10-31T01:33:55.566Z,2.40
2022-10-31T01:36:28.693Z,2.30
2022-10-31T01:38:58.770Z,2.45
2022-10-31T01:41:31.300Z,2.20
2022-10-31T01:44:04.556Z,2.17
2022-10-31T01:46:38.252Z,2.50
2022-10-31T01:49:10.821Z,2.53
2022-10-31T01:51:41.376Z,2.40
2022-10-31T01:54:11.320Z,3.17
2022-10-31T01:56:40.945Z,2.75
2022-10-31T01:59:10.526Z,3.35
2022-10-31T02:01:37.469Z,2.95
2022-10-31T02:04:04.893Z,3.20
2022-10-31T02:06:39.997Z,2.97
2022-10-31T02:09:07.404Z,3.25
2022-10-31T02:11:34.423Z,2.55
2022-10-31T02:14:01.904Z,4.47
2022-10-31T02:16:28.535Z,2.53
2022-10-31T02:18:55.621Z,3.20
2022-10-31T02:21:43.827Z,2.58
2022-10-31T02:25:09.315Z,5.93
2022-10-31T02:27:41.424Z,2.63
2022-10-31T02:30:20.844Z,2.70
2022-10-31T02:32:56.092Z,2.67
2022-10-31T02:35:41.389Z,2.97
2022-10-31T02:38:14.016Z,2.25
2022-10-31T02:40:50.348Z,2.55
2022-10-31T02:43:22.147Z,2.22
2022-10-31T02:45:54.540Z,3.50
2022-10-31T02:48:25.494Z,3.47
2022-10-31T02:50:57.602Z,3.10
2022-10-31T02:53:24.426Z,3.35
2022-10-31T02:55:53.904Z,2.80
2022-10-31T02:58:24.128Z,2.83
2022-10-31T03:01:15.692Z,2.47
2022-10-31T03:03:52.897Z,2.90
2022-10-31T03:06:33.624Z,2.30
2022-10-31T03:09:09.255Z,2.85
2022-10-31T03:12:03.918Z,3.03
2022-10-31T03:14:43.387Z,2.53
2022-10-31T03:17:17.585Z,2.80
2022-10-31T03:19:47.518Z,2.25
2022-10-31T03:22:26.842Z,2.42
2022-10-31T03:24:54.038Z,2.25
2022-10-31T03:27:25.294Z,2.63
2022-10-31T03:29:55.514Z,2.40
2022-10-31T03:32:26.938Z,2.28
2022-10-31T03:34:57.741Z,2.50
2022-10-31T03:37:25.677Z,3.28
2022-10-31T03:39:52.952Z,2.78
2022-10-31T03:42:22.737Z,3.40
2022-10-31T03:44:55.084Z,3.03
2022-10-31T03:47:21.802Z,2.33
2022-10-31T03:49:48.424Z,2.97
2022-10-31T03:52:25.030Z,3.60
2022-10-31T03:55:00.048Z,2.95
2022-10-31T03:57:35.611Z,3.03
2022-10-31T04:00:09.514Z,2.97
2022-10-31T04:02:40.243Z,4.32
2022-10-31T04:05:07.512Z,5.05
2022-10-31T04:07:41.297Z,3.22
2022-10-31T04:10:10.765Z,2.70
2022-10-31T04:12:38.590Z,1.83
2022-10-31T04:15:07.130Z,1.73
2022-10-31T04:17:36.453Z,2.00
2022-10-31T04:20:03.781Z,2.60
2022-10-31T04:22:30.487Z,3.45
2022-10-31T04:24:57.070Z,1.52
2022-10-31T04:27:23.757Z,1.80
2022-10-31T04:29:51.052Z,1.15
2022-10-31T04:32:17.854Z,1.33
2022-10-31T04:34:44.483Z,1.50
2022-10-31T04:37:11.096Z,1.70
2022-10-31T04:39:37.656Z,1.75
2022-10-31T04:42:04.353Z,1.70
2022-10-31T04:44:30.978Z,1.08
2022-10-31T04:46:57.600Z,1.80
2022-10-31T04:49:24.198Z,1.70
2022-10-31T04:51:50.846Z,1.58
2022-10-31T04:54:17.480Z,1.50
2022-10-31T04:56:44.077Z,1.08
2022-10-31T04:59:10.671Z,0.85
2022-10-31T05:01:37.474Z,1.08
2022-10-31T05:04:04.327Z,0.95
2022-10-31T05:06:31.564Z,1.35
2022-10-31T05:08:58.158Z,1.20
2022-10-31T05:11:24.832Z,1.00
2022-10-31T05:13:51.449Z,0.90
2022-10-31T05:16:18.078Z,1.13
2022-10-31T05:18:44.648Z,0.80
2022-10-31T05:21:11.370Z,1.40
2022-10-31T05:23:37.977Z,1.00
2022-10-31T05:26:04.716Z,2.55
2022-10-31T05:28:31.312Z,1.23
2022-10-31T05:30:57.907Z,0.82
2022-10-31T05:33:24.580Z,1.23
2022-10-31T05:35:51.215Z,0.82
2022-10-31T05:38:17.934Z,1.00
2022-10-31T05:40:44.600Z,1.23
2022-10-31T05:43:12.217Z,0.80
2022-10-31T05:45:39.040Z,1.17
2022-10-31T05:48:06.050Z,1.05
2022-10-31T05:50:32.996Z,0.70
2022-10-31T05:53:02.104Z,1.13
2022-10-31T05:55:29.776Z,0.95
2022-10-31T05:57:57.220Z,0.90
2022-10-31T06:00:25.486Z,0.90
2022-10-31T06:02:59.886Z,0.80
2022-10-31T06:05:27.171Z,1.10
2022-10-31T06:07:53.822Z,0.98
2022-10-31T06:10:22.001Z,1.10
2022-10-31T06:12:49.590Z,3.50
2022-10-31T06:15:21.061Z,1.38
2022-10-31T06:18:01.078Z,1.48
2022-10-31T06:20:28.073Z,1.13
2022-10-31T06:22:54.653Z,1.90
2022-10-31T06:25:21.247Z,1.73
2022-10-31T06:27:47.905Z,1.27
2022-10-31T06:30:15.013Z,1.52
2022-10-31T06:32:41.765Z,1.25
2022-10-31T06:35:08.582Z,1.25
2022-10-31T06:37:35.205Z,1.15
2022-10-31T06:40:01.947Z,1.40
2022-10-31T06:42:28.574Z,1.55
2022-10-31T06:44:55.276Z,1.45
2022-10-31T06:47:21.925Z,1.52
2022-10-31T06:49:48.507Z,0.70
2022-10-31T06:52:15.157Z,1.17
2022-10-31T06:54:41.806Z,0.70
2022-10-31T06:57:08.403Z,0.65
2022-10-31T06:59:35.088Z,0.77
2022-10-31T07:02:01.930Z,2.25
2022-10-31T07:04:28.659Z,1.00
2022-10-31T07:06:55.248Z,1.30
2022-10-31T07:09:21.964Z,1.35
2022-10-31T07:11:48.659Z,1.25
2022-10-31T07:14:15.296Z,1.35
2022-10-31T07:16:41.880Z,1.48
2022-10-31T07:19:08.560Z,0.88
2022-10-31T07:21:35.339Z,1.00
2022-10-31T07:24:01.957Z,0.77
2022-10-31T07:26:28.961Z,0.80
2022-10-31T07:28:55.561Z,1.05
2022-10-31T07:31:22.169Z,0.90
2022-10-31T07:33:48.858Z,0.95
2022-10-31T07:36:15.541Z,1.60
2022-10-31T07:38:42.381Z,1.50
2022-10-31T07:41:09.040Z,1.00
2022-10-31T07:43:35.654Z,0.90
2022-10-31T07:46:02.288Z,1.02
2022-10-31T07:48:28.886Z,0.88
2022-10-31T07:50:56.344Z,1.00
2022-10-31T07:53:22.952Z,1.08
2022-10-31T07:55:49.579Z,2.00
2022-10-31T07:58:17.989Z,1.33
2022-10-31T08:00:47.302Z,1.90
2022-10-31T08:03:16.098Z,1.27
2022-10-31T08:05:43.232Z,1.30
2022-10-31T08:08:10.204Z,1.08
2022-10-31T08:10:37.581Z,1.10
2022-10-31T08:13:06.603Z,1.10
2022-10-31T08:15:35.153Z,0.80
2022-10-31T08:18:03.405Z,1.15
2022-10-31T08:20:30.233Z,1.10
2022-10-31T08:22:58.885Z,0.85
2022-10-31T08:25:26.253Z,1.77
2022-10-31T08:27:54.438Z,0.63
2022-10-31T08:30:22.440Z,0.95
2022-10-31T08:32:51.660Z,0.80
2022-10-31T08:35:18.312Z,0.93
2022-10-31T08:37:45.053Z,0.80
2022-10-31T08:40:12.318Z,1.05
2022-10-31T08:42:38.965Z,0.80
2022-10-31T08:45:05.884Z,1.77
2022-10-31T08:47:32.544Z,1.17
2022-10-31T08:49:59.200Z,1.08
2022-10-31T08:52:51.199Z,1.38
2022-10-31T08:55:13.180Z,0.77
2022-10-31T08:57:39.849Z,0.90
2022-10-31T09:00:07.322Z,0.95
2022-10-31T09:02:33.989Z,1.13
2022-10-31T09:05:00.852Z,1.30
2022-10-31T09:07:27.456Z,1.13
2022-10-31T09:09:54.088Z,1.08
2022-10-31T09:12:20.836Z,1.30
2022-10-31T09:14:47.487Z,1.45
2022-10-31T09:17:14.129Z,1.40
2022-10-31T09:19:40.752Z,1.02
2022-10-31T09:22:07.339Z,1.23
2022-10-31T09:24:33.933Z,0.60
2022-10-31T09:27:00.582Z,0.70
2022-10-31T09:29:27.268Z,0.95
2022-10-31T09:31:53.915Z,0.93
2022-10-31T09:34:20.514Z,1.23
2022-10-31T09:36:47.120Z,1.00
2022-10-31T09:39:13.696Z,1.13
2022-10-31T09:42:02.892Z,0.73
2022-10-31T09:44:53.142Z,0.90
2022-10-31T09:47:39.053Z,1.08
2022-10-31T09:50:27.250Z,0.95
2022-10-31T09:53:10.319Z,0.85
2022-10-31T09:55:45.612Z,0.70
2022-10-31T10:00:44.584Z,1.60
2022-10-31T10:03:32.923Z,0.95
2022-10-31T10:06:11.652Z,1.15
2022-10-31T10:08:38.380Z,1.25
2022-10-31T10:11:07.856Z,2.28
2022-10-31T10:13:57.264Z,0.88
2022-10-31T10:16:47.907Z,0.73
2022-10-31T10:19:31.377Z,0.63
2022-10-31T10:22:26.333Z,1.10
2022-10-31T10:24:59.814Z,1.10
2022-10-31T10:27:52.546Z,1.27
2022-10-31T10:30:28.026Z,0.70
2022-10-31T10:32:58.576Z,0.60
2022-10-31T10:35:34.418Z,0.75
2022-10-31T10:38:13.442Z,1.38
2022-10-31T10:40:40.192Z,0.65
2022-10-31T10:43:27.819Z,0.60
2022-10-31T10:46:51.694Z,1.05
2022-10-31T10:49:21.125Z,1.88
2022-10-31T10:54:57.593Z,0.70
2022-10-31T10:57:35.265Z,0.75
2022-10-31T11:00:05.158Z,0.60
2022-10-31T11:02:33.434Z,0.93
2022-10-31T11:05:12.237Z,0.60
2022-10-31T11:07:40.953Z,2.38
2022-10-31T11:10:17.693Z,0.57
2022-10-31T11:12:58.705Z,0.98
2022-10-31T11:15:26.910Z,1.05
2022-10-31T11:17:55.914Z,0.60
2022-10-31T11:20:33.668Z,0.40
2022-10-31T11:23:18.923Z,0.95
2022-10-31T11:25:53.056Z,0.52
2022-10-31T11:28:19.671Z,1.00
2022-10-31T11:30:53.751Z,1.23
2022-10-31T11:33:32.723Z,1.08
2022-10-31T11:35:59.941Z,0.63
2022-10-31T11:38:41.517Z,0.50
2022-10-31T11:41:25.266Z,1.70
2022-10-31T11:43:54.872Z,0.88
2022-10-31T11:46:39.789Z,0.85
2022-10-31T11:49:15.295Z,1.58
2022-10-31T11:51:41.993Z,1.15
2022-10-31T11:54:21.899Z,1.42
2022-10-31T14:24:55.589Z,1.17
2022-10-31T14:27:24.759Z,1.27
2022-10-31T14:29:51.492Z,1.38
2022-10-31T14:32:23.468Z,1.23
2022-10-31T14:34:57.675Z,1.35
2022-10-31T14:37:30.472Z,1.50
2022-10-31T14:40:18.373Z,1.63
2022-10-31T14:42:50.733Z,1.92
2022-10-31T14:45:31.872Z,2.00
2022-10-31T14:48:16.806Z,1.42
2022-10-31T14:50:49.648Z,2.28
2022-10-31T14:53:56.739Z,1.80
2022-10-31T14:56:32.842Z,1.67
2022-10-31T14:59:03.192Z,1.55
2022-10-31T15:01:37.774Z,1.60
2022-10-31T15:04:23.132Z,2.17
2022-10-31T15:07:03.912Z,2.55
2022-10-31T15:09:35.466Z,1.95
2022-10-31T15:12:18.078Z,1.90
2022-10-31T15:14:44.679Z,2.00
2022-10-31T15:17:12.832Z,2.05
2022-10-31T15:19:39.657Z,3.03
2022-10-31T15:22:06.840Z,4.88
2022-10-31T15:24:36.148Z,2.85
2022-10-31T15:27:05.186Z,2.80
2022-10-31T15:29:32.395Z,2.80
2022-10-31T15:32:19.692Z,3.13
2022-10-31T15:34:46.307Z,3.17
2022-10-31T15:37:19.157Z,3.60
2022-10-31T15:39:47.311Z,2.85
2022-10-31T15:42:29.108Z,3.22
2022-10-31T15:48:36.314Z,5.28
2022-10-31T15:51:03.575Z,4.57
2022-10-31T15:53:38.032Z,4.35
2022-10-31T15:56:09.703Z,3.93
2022-10-31T15:58:45.910Z,4.45
2022-10-31T16:01:21.659Z,4.72
2022-10-31T16:04:05.725Z,3.92
2022-10-31T16:06:34.591Z,3.58
2022-10-31T16:09:01.521Z,3.20
2022-10-31T16:11:31.019Z,3.65
2022-10-31T16:14:18.472Z,3.75
2022-10-31T16:16:50.432Z,2.78
2022-10-31T16:19:36.978Z,4.05
2022-10-31T16:22:09.321Z,3.88
2022-10-31T16:24:52.859Z,4.38
2022-10-31T16:27:27.924Z,3.85
2022-10-31T16:30:02.483Z,4.70
2022-10-31T16:32:32.827Z,3.97
2022-10-31T16:35:24.607Z,4.18
2022-10-31T16:37:51.237Z,4.28
2022-10-31T16:40:18.791Z,3.72
2022-10-31T16:42:46.157Z,2.28
2022-10-31T16:45:24.018Z,3.58
2022-10-31T16:47:51.488Z,2.78
2022-10-31T16:50:22.067Z,3.30
2022-10-31T16:55:46.396Z,3.50
2022-10-31T16:58:25.196Z,3.53
2022-10-31T17:00:52.763Z,3.75
2022-10-31T17:03:19.842Z,2.97
2022-10-31T17:05:46.686Z,5.63
2022-10-31T17:08:13.387Z,4.03
2022-10-31T17:10:40.996Z,4.57
2022-10-31T17:13:10.297Z,4.38
2022-10-31T17:15:40.537Z,3.92
2022-10-31T17:18:07.200Z,3.80
2022-10-31T17:20:39.117Z,4.47
2022-10-31T17:23:05.743Z,4.18
2022-10-31T17:25:32.492Z,3.53
2022-10-31T17:27:59.600Z,3.40
2022-10-31T17:30:26.254Z,4.63
2022-10-31T17:32:53.102Z,4.32
2022-10-31T17:35:20.157Z,4.10
2022-10-31T17:37:47.539Z,3.55
2022-10-31T17:40:16.533Z,5.15
2022-10-31T17:42:43.708Z,4.55
2022-10-31T17:45:10.934Z,4.35
2022-10-31T17:47:38.457Z,5.20
2022-10-31T17:50:05.357Z,4.93
2022-10-31T17:52:31.977Z,4.72
2022-10-31T17:54:58.606Z,4.57
2022-10-31T17:57:25.223Z,3.92
2022-10-31T17:59:51.796Z,3.58
2022-10-31T18:02:18.466Z,3.65
2022-10-31T18:04:45.098Z,3.22
2022-10-31T18:07:11.792Z,4.43
2022-10-31T18:09:38.445Z,4.22
2022-10-31T18:12:05.428Z,4.43
2022-10-31T18:14:32.538Z,3.40
2022-10-31T18:16:59.152Z,3.80
2022-10-31T18:19:25.771Z,3.55
2022-10-31T18:21:52.506Z,3.90
2022-10-31T18:24:19.154Z,3.47
2022-10-31T18:26:45.758Z,3.58
2022-10-31T18:29:12.703Z,4.05
2022-10-31T18:31:39.727Z,3.70
2022-10-31T18:34:06.330Z,3.30
2022-10-31T18:36:33.023Z,3.25
2022-10-31T18:39:00.268Z,3.50
2022-10-31T18:41:26.955Z,5.05
2022-10-31T18:43:59.076Z,4.03
2022-10-31T18:46:27.523Z,4.65
2022-10-31T18:48:54.232Z,3.35
2022-10-31T18:51:20.839Z,4.72
2022-10-31T18:53:55.135Z,3.58
2022-10-31T18:56:22.606Z,4.75
2022-10-31T18:58:49.412Z,4.20
2022-10-31T19:01:17.526Z,3.13
2022-10-31T19:03:44.320Z,3.67
2022-10-31T19:06:11.350Z,4.43
2022-10-31T19:08:39.191Z,7.20
2022-10-31T19:11:05.924Z,5.70
2022-10-31T19:13:33.680Z,5.18
2022-10-31T19:16:07.107Z,5.03
2022-10-31T19:18:33.815Z,5.07
2022-10-31T19:21:05.547Z,4.25
2022-10-31T19:23:32.180Z,4.15
2022-10-31T19:26:00.258Z,3.40
2022-10-31T19:28:26.839Z,4.18
2022-10-31T19:30:54.662Z,3.17
2022-10-31T19:33:21.685Z,3.78
2022-10-31T19:35:48.358Z,4.10
2022-10-31T19:38:14.981Z,4.45
2022-10-31T19:40:41.569Z,4.40
2022-10-31T19:43:08.524Z,4.18
2022-10-31T19:45:35.116Z,4.35
2022-10-31T19:48:02.154Z,3.85
2022-10-31T19:50:29.812Z,5.28
2022-10-31T19:52:56.568Z,4.43
2022-10-31T19:55:23.274Z,3.75
2022-10-31T19:58:01.336Z,4.10
2022-10-31T20:00:28.972Z,3.83
2022-10-31T20:02:55.635Z,3.75
2022-10-31T20:05:23.222Z,7.63
2022-10-31T20:07:49.807Z,8.95
2022-10-31T20:10:17.295Z,5.95
2022-10-31T20:12:44.000Z,5.70
2022-10-31T20:15:10.701Z,5.70
2022-10-31T20:17:37.330Z,5.03
2022-10-31T20:20:08.820Z,5.50
2022-10-31T20:22:38.569Z,4.45
2022-10-31T20:25:05.779Z,4.30
2022-10-31T20:27:32.521Z,4.05
2022-10-31T20:29:59.111Z,3.75
2022-10-31T20:32:25.927Z,4.22
2022-10-31T20:34:52.506Z,3.83
2022-10-31T20:37:19.099Z,4.18
2022-10-31T20:39:45.744Z,4.22
2022-10-31T20:42:12.344Z,4.93
2022-10-31T20:44:39.009Z,4.75
2022-10-31T20:47:06.709Z,6.00
2022-10-31T20:49:33.357Z,4.32
2022-10-31T20:52:00.055Z,3.00
2022-10-31T20:55:01.087Z,3.35
2022-10-31T20:57:27.698Z,3.90
2022-10-31T20:59:54.312Z,3.28
2022-10-31T21:02:21.063Z,5.13
2022-10-31T21:04:47.743Z,4.25
2022-10-31T21:07:14.463Z,4.82
2022-10-31T21:09:41.146Z,5.15
2022-10-31T21:12:07.818Z,3.72
2022-10-31T21:14:34.519Z,3.40
2022-10-31T21:17:01.095Z,4.75
2022-10-31T21:19:27.790Z,3.08
2022-10-31T21:21:54.430Z,3.75
2022-10-31T21:24:21.864Z,4.60
2022-10-31T21:26:51.225Z,3.05
2022-10-31T21:29:19.057Z,3.55
2022-10-31T21:31:46.944Z,3.75
2022-10-31T21:34:14.057Z,4.55
2022-10-31T21:36:40.862Z,3.25
2022-10-31T21:39:09.460Z,3.17
2022-10-31T21:41:36.421Z,3.35
2022-10-31T21:44:03.300Z,2.42
2022-10-31T21:46:31.766Z,3.47
2022-10-31T21:48:58.644Z,3.22
2022-10-31T21:51:30.273Z,3.88
2022-10-31T21:54:17.007Z,5.68
2022-10-31T21:56:43.840Z,4.00
2022-10-31T21:59:10.552Z,7.05
2022-10-31T22:01:37.568Z,3.83
2022-10-31T22:04:04.730Z,2.65
2022-10-31T22:06:31.454Z,4.72
2022-10-31T22:08:59.564Z,4.03
2022-10-31T22:11:28.163Z,3.15
2022-10-31T22:13:55.501Z,3.28
2022-10-31T22:16:24.732Z,2.85
2022-10-31T22:18:53.041Z,3.05
2022-10-31T22:21:24.480Z,4.03
2022-10-31T22:24:01.908Z,3.10
2022-10-31T22:26:32.213Z,3.75
2022-10-31T22:29:02.419Z,3.25
2022-10-31T22:31:30.431Z,3.45
2022-10-31T22:33:57.652Z,3.20
2022-10-31T22:36:26.978Z,3.53
2022-10-31T22:38:53.774Z,4.07
2022-10-31T22:41:28.804Z,3.17
2022-10-31T22:43:56.356Z,3.72
2022-10-31T22:46:25.136Z,2.90
2022-10-31T22:48:56.811Z,3.30
2022-10-31T22:51:29.405Z,4.15
2022-10-31T22:53:56.811Z,3.40
2022-10-31T22:56:26.559Z,3.97
2022-10-31T22:58:53.307Z,4.53
2022-10-31T23:01:25.011Z,3.58
2022-10-31T23:03:52.318Z,3.38
2022-10-31T23:06:23.846Z,4.75
2022-10-31T23:08:51.432Z,3.38
2022-10-31T23:11:22.730Z,3.90
2022-10-31T23:14:09.314Z,4.35
2022-10-31T23:16:51.297Z,3.83
2022-10-31T23:19:22.050Z,4.53
2022-10-31T23:21:57.273Z,3.55
2022-10-31T23:24:39.485Z,4.38
2022-10-31T23:27:11.526Z,5.43
2022-10-31T23:29:45.099Z,4.10
2022-10-31T23:32:19.948Z,3.70
2022-10-31T23:34:48.461Z,5.35
2022-10-31T23:37:16.606Z,3.67
2022-10-31T23:39:43.576Z,5.55
2022-10-31T23:42:10.578Z,6.20
2022-10-31T23:44:37.293Z,9.15
2022-10-31T23:47:03.957Z,8.95
2022-10-31T23:49:30.618Z,16.33
2022-10-31T23:51:57.960Z,11.45
2022-10-31T23:54:25.479Z,5.82
2022-10-31T23:56:52.815Z,3.88
2022-10-31T23:59:19.703Z,3.67
